sensor_id;sensor_type;location;lat;lon;timestamp;P1;durP1;ratioP1;P2;durP2;ratioP2
16093;SDS011;8151;47.824;12.092;2023-03-05T00:01:37;27.13;;;12.77;;
16093;SDS011;8151;47.824;12.092;2023-03-05T00:04:07;27.43;;;13.70;;
16093;SDS011;8151;47.824;12.092;2023-03-05T00:06:38;29.70;;;14.53;;
16093;SDS011;8151;47.824;12.092;2023-03-05T00:09:08;26.43;;;14.77;;
16093;SDS011;8151;47.824;12.092;2023-03-05T00:11:42;30.73;;;14.27;;
16093;SDS011;8151;47.824;12.092;2023-03-05T00:14:11;25.53;;;14.47;;
16093;SDS011;8151;47.824;12.092;2023-03-05T00:16:39;25.27;;;13.57;;
16093;SDS011;8151;47.824;12.092;2023-03-05T00:19:08;28.60;;;14.70;;
16093;SDS011;8151;47.824;12.092;2023-03-05T00:21:38;28.60;;;14.83;;
16093;SDS011;8151;47.824;12.092;2023-03-05T00:24:10;26.53;;;12.90;;
16093;SDS011;8151;47.824;12.092;2023-03-05T00:26:40;24.73;;;13.83;;
16093;SDS011;8151;47.824;12.092;2023-03-05T00:29:08;26.03;;;13.83;;
16093;SDS011;8151;47.824;12.092;2023-03-05T00:31:38;27.07;;;14.27;;
16093;SDS011;8151;47.824;12.092;2023-03-05T00:34:07;32.90;;;14.77;;
16093;SDS011;8151;47.824;12.092;2023-03-05T00:36:38;26.27;;;14.27;;
16093;SDS011;8151;47.824;12.092;2023-03-05T00:39:09;29.60;;;15.47;;
16093;SDS011;8151;47.824;12.092;2023-03-05T00:41:38;26.03;;;14.67;;
16093;SDS011;8151;47.824;12.092;2023-03-05T00:44:06;30.50;;;14.47;;
16093;SDS011;8151;47.824;12.092;2023-03-05T00:46:35;34.33;;;15.07;;
16093;SDS011;8151;47.824;12.092;2023-03-05T00:49:04;26.33;;;14.20;;
16093;SDS011;8151;47.824;12.092;2023-03-05T00:51:32;26.90;;;13.47;;
16093;SDS011;8151;47.824;12.092;2023-03-05T00:54:01;26.33;;;13.87;;
16093;SDS011;8151;47.824;12.092;2023-03-05T00:56:31;27.40;;;14.20;;
16093;SDS011;8151;47.824;12.092;2023-03-05T00:59:00;27.30;;;15.00;;
16093;SDS011;8151;47.824;12.092;2023-03-05T01:01:39;26.73;;;14.27;;
16093;SDS011;8151;47.824;12.092;2023-03-05T01:04:07;25.73;;;14.73;;
16093;SDS011;8151;47.824;12.092;2023-03-05T01:06:36;26.00;;;13.93;;
16093;SDS011;8151;47.824;12.092;2023-03-05T01:09:08;27.53;;;13.83;;
16093;SDS011;8151;47.824;12.092;2023-03-05T01:11:38;25.73;;;14.33;;
16093;SDS011;8151;47.824;12.092;2023-03-05T01:14:07;26.57;;;14.33;;
16093;SDS011;8151;47.824;12.092;2023-03-05T01:16:35;25.50;;;14.97;;
16093;SDS011;8151;47.824;12.092;2023-03-05T01:19:03;25.87;;;13.63;;
16093;SDS011;8151;47.824;12.092;2023-03-05T01:21:32;29.93;;;14.20;;
16093;SDS011;8151;47.824;12.092;2023-03-05T01:24:01;25.23;;;14.43;;
16093;SDS011;8151;47.824;12.092;2023-03-05T01:26:30;24.47;;;14.03;;
16093;SDS011;8151;47.824;12.092;2023-03-05T01:29:00;29.27;;;13.73;;
16093;SDS011;8151;47.824;12.092;2023-03-05T01:31:29;27.53;;;14.37;;
16093;SDS011;8151;47.824;12.092;2023-03-05T01:33:57;24.70;;;13.70;;
16093;SDS011;8151;47.824;12.092;2023-03-05T01:36:26;24.80;;;14.77;;
16093;SDS011;8151;47.824;12.092;2023-03-05T01:38:55;25.63;;;13.90;;
16093;SDS011;8151;47.824;12.092;2023-03-05T01:41:23;26.50;;;13.87;;
16093;SDS011;8151;47.824;12.092;2023-03-05T01:43:52;30.87;;;14.33;;
16093;SDS011;8151;47.824;12.092;2023-03-05T01:46:30;24.57;;;14.27;;
16093;SDS011;8151;47.824;12.092;2023-03-05T01:49:02;27.20;;;14.83;;
16093;SDS011;8151;47.824;12.092;2023-03-05T01:51:37;29.87;;;15.37;;
16093;SDS011;8151;47.824;12.092;2023-03-05T01:54:09;30.17;;;16.07;;
16093;SDS011;8151;47.824;12.092;2023-03-05T01:56:40;29.40;;;15.40;;
16093;SDS011;8151;47.824;12.092;2023-03-05T01:59:10;28.57;;;14.63;;
16093;SDS011;8151;47.824;12.092;2023-03-05T02:01:42;30.07;;;15.13;;
16093;SDS011;8151;47.824;12.092;2023-03-05T02:04:13;27.33;;;14.37;;
16093;SDS011;8151;47.824;12.092;2023-03-05T02:06:44;29.77;;;15.50;;
16093;SDS011;8151;47.824;12.092;2023-03-05T02:09:13;29.83;;;14.53;;
16093;SDS011;8151;47.824;12.092;2023-03-05T02:11:42;28.57;;;15.43;;
16093;SDS011;8151;47.824;12.092;2023-03-05T02:14:10;27.27;;;14.57;;
16093;SDS011;8151;47.824;12.092;2023-03-05T02:16:39;26.73;;;14.80;;
16093;SDS011;8151;47.824;12.092;2023-03-05T02:19:10;32.37;;;15.57;;
16093;SDS011;8151;47.824;12.092;2023-03-05T02:21:41;31.87;;;15.97;;
16093;SDS011;8151;47.824;12.092;2023-03-05T02:24:11;30.83;;;14.97;;
16093;SDS011;8151;47.824;12.092;2023-03-05T02:26:41;30.87;;;14.67;;
16093;SDS011;8151;47.824;12.092;2023-03-05T02:29:13;31.77;;;15.50;;
16093;SDS011;8151;47.824;12.092;2023-03-05T02:31:45;30.87;;;15.50;;
16093;SDS011;8151;47.824;12.092;2023-03-05T02:34:13;27.07;;;14.57;;
16093;SDS011;8151;47.824;12.092;2023-03-05T02:36:43;29.80;;;15.00;;
16093;SDS011;8151;47.824;12.092;2023-03-05T02:39:12;31.60;;;15.03;;
16093;SDS011;8151;47.824;12.092;2023-03-05T02:41:40;29.90;;;15.40;;
16093;SDS011;8151;47.824;12.092;2023-03-05T02:44:09;28.07;;;14.90;;
16093;SDS011;8151;47.824;12.092;2023-03-05T02:46:37;33.03;;;16.60;;
16093;SDS011;8151;47.824;12.092;2023-03-05T02:49:06;27.50;;;15.10;;
16093;SDS011;8151;47.824;12.092;2023-03-05T02:51:34;31.27;;;15.60;;
16093;SDS011;8151;47.824;12.092;2023-03-05T02:54:04;30.33;;;16.30;;
16093;SDS011;8151;47.824;12.092;2023-03-05T02:56:32;31.97;;;15.30;;
16093;SDS011;8151;47.824;12.092;2023-03-05T02:59:01;29.13;;;14.40;;
16093;SDS011;8151;47.824;12.092;2023-03-05T03:01:29;29.63;;;15.70;;
16093;SDS011;8151;47.824;12.092;2023-03-05T03:03:58;27.37;;;15.23;;
16093;SDS011;8151;47.824;12.092;2023-03-05T03:06:26;32.07;;;15.30;;
16093;SDS011;8151;47.824;12.092;2023-03-05T03:08:54;33.83;;;16.33;;
16093;SDS011;8151;47.824;12.092;2023-03-05T03:11:24;26.80;;;14.77;;
16093;SDS011;8151;47.824;12.092;2023-03-05T03:13:52;29.87;;;15.90;;
16093;SDS011;8151;47.824;12.092;2023-03-05T03:16:32;33.57;;;15.17;;
16093;SDS011;8151;47.824;12.092;2023-03-05T03:19:04;27.27;;;15.50;;
16093;SDS011;8151;47.824;12.092;2023-03-05T03:21:33;27.70;;;14.70;;
16093;SDS011;8151;47.824;12.092;2023-03-05T03:24:01;29.53;;;14.53;;
16093;SDS011;8151;47.824;12.092;2023-03-05T03:26:31;34.90;;;15.03;;
16093;SDS011;8151;47.824;12.092;2023-03-05T03:28:59;32.23;;;16.17;;
16093;SDS011;8151;47.824;12.092;2023-03-05T03:31:28;31.67;;;16.63;;
16093;SDS011;8151;47.824;12.092;2023-03-05T03:33:56;32.90;;;16.00;;
16093;SDS011;8151;47.824;12.092;2023-03-05T03:36:25;28.37;;;15.73;;
16093;SDS011;8151;47.824;12.092;2023-03-05T03:38:53;30.57;;;15.37;;
16093;SDS011;8151;47.824;12.092;2023-03-05T03:41:21;32.33;;;16.30;;
16093;SDS011;8151;47.824;12.092;2023-03-05T03:43:51;32.40;;;16.17;;
16093;SDS011;8151;47.824;12.092;2023-03-05T03:46:19;35.07;;;16.93;;
16093;SDS011;8151;47.824;12.092;2023-03-05T03:48:48;35.33;;;16.63;;
16093;SDS011;8151;47.824;12.092;2023-03-05T03:51:17;32.33;;;15.70;;
16093;SDS011;8151;47.824;12.092;2023-03-05T03:53:45;33.27;;;15.90;;
16093;SDS011;8151;47.824;12.092;2023-03-05T03:56:14;32.90;;;15.93;;
16093;SDS011;8151;47.824;12.092;2023-03-05T03:58:42;30.93;;;16.03;;
16093;SDS011;8151;47.824;12.092;2023-03-05T04:01:12;32.77;;;15.63;;
16093;SDS011;8151;47.824;12.092;2023-03-05T04:03:40;27.93;;;15.77;;
16093;SDS011;8151;47.824;12.092;2023-03-05T04:06:09;31.10;;;15.83;;
16093;SDS011;8151;47.824;12.092;2023-03-05T04:08:37;30.93;;;16.20;;
16093;SDS011;8151;47.824;12.092;2023-03-05T04:11:06;31.10;;;15.27;;
16093;SDS011;8151;47.824;12.092;2023-03-05T04:13:34;27.40;;;15.43;;
16093;SDS011;8151;47.824;12.092;2023-03-05T04:16:02;32.97;;;16.90;;
16093;SDS011;8151;47.824;12.092;2023-03-05T04:18:32;29.77;;;16.17;;
16093;SDS011;8151;47.824;12.092;2023-03-05T04:21:01;35.80;;;15.97;;
16093;SDS011;8151;47.824;12.092;2023-03-05T04:23:29;33.83;;;16.63;;
16093;SDS011;8151;47.824;12.092;2023-03-05T04:25:58;30.97;;;16.57;;
16093;SDS011;8151;47.824;12.092;2023-03-05T04:28:26;31.77;;;15.30;;
16093;SDS011;8151;47.824;12.092;2023-03-05T04:30:55;29.30;;;16.30;;
16093;SDS011;8151;47.824;12.092;2023-03-05T04:33:23;29.00;;;15.43;;
16093;SDS011;8151;47.824;12.092;2023-03-05T04:35:53;28.10;;;15.23;;
16093;SDS011;8151;47.824;12.092;2023-03-05T04:38:22;32.17;;;16.73;;
16093;SDS011;8151;47.824;12.092;2023-03-05T04:40:50;29.37;;;15.40;;
16093;SDS011;8151;47.824;12.092;2023-03-05T04:43:18;32.60;;;15.80;;
16093;SDS011;8151;47.824;12.092;2023-03-05T04:45:47;31.87;;;15.97;;
16093;SDS011;8151;47.824;12.092;2023-03-05T04:48:15;29.90;;;15.47;;
16093;SDS011;8151;47.824;12.092;2023-03-05T04:50:44;31.50;;;16.67;;
16093;SDS011;8151;47.824;12.092;2023-03-05T04:53:14;27.83;;;15.30;;
16093;SDS011;8151;47.824;12.092;2023-03-05T04:55:43;35.47;;;16.23;;
16093;SDS011;8151;47.824;12.092;2023-03-05T04:58:11;29.30;;;16.87;;
16093;SDS011;8151;47.824;12.092;2023-03-05T05:00:40;29.30;;;15.97;;
16093;SDS011;8151;47.824;12.092;2023-03-05T05:03:08;27.90;;;15.03;;
16093;SDS011;8151;47.824;12.092;2023-03-05T05:05:37;33.80;;;16.73;;
16093;SDS011;8151;47.824;12.092;2023-03-05T05:08:05;32.53;;;15.33;;
16093;SDS011;8151;47.824;12.092;2023-03-05T05:10:35;28.40;;;15.23;;
16093;SDS011;8151;47.824;12.092;2023-03-05T05:13:05;31.97;;;16.83;;
16093;SDS011;8151;47.824;12.092;2023-03-05T05:15:33;27.60;;;14.53;;
16093;SDS011;8151;47.824;12.092;2023-03-05T05:18:02;29.93;;;15.43;;
16093;SDS011;8151;47.824;12.092;2023-03-05T05:20:30;27.13;;;15.30;;
16093;SDS011;8151;47.824;12.092;2023-03-05T05:22:59;29.57;;;15.17;;
16093;SDS011;8151;47.824;12.092;2023-03-05T05:25:27;26.43;;;14.03;;
16093;SDS011;8151;47.824;12.092;2023-03-05T05:27:57;26.87;;;14.43;;
16093;SDS011;8151;47.824;12.092;2023-03-05T05:30:25;29.53;;;14.83;;
16093;SDS011;8151;47.824;12.092;2023-03-05T05:32:53;28.27;;;15.33;;
16093;SDS011;8151;47.824;12.092;2023-03-05T05:35:22;29.97;;;15.47;;
16093;SDS011;8151;47.824;12.092;2023-03-05T05:37:50;28.53;;;15.30;;
16093;SDS011;8151;47.824;12.092;2023-03-05T05:40:19;29.53;;;15.67;;
16093;SDS011;8151;47.824;12.092;2023-03-05T05:42:47;30.50;;;16.30;;
16093;SDS011;8151;47.824;12.092;2023-03-05T05:45:17;26.60;;;15.57;;
16093;SDS011;8151;47.824;12.092;2023-03-05T05:47:46;29.70;;;15.67;;
16093;SDS011;8151;47.824;12.092;2023-03-05T05:50:14;34.33;;;14.87;;
16093;SDS011;8151;47.824;12.092;2023-03-05T05:52:43;30.77;;;16.27;;
16093;SDS011;8151;47.824;12.092;2023-03-05T05:55:11;31.93;;;15.77;;
16093;SDS011;8151;47.824;12.092;2023-03-05T05:57:40;29.07;;;15.20;;
16093;SDS011;8151;47.824;12.092;2023-03-05T06:00:09;31.40;;;15.63;;
16093;SDS011;8151;47.824;12.092;2023-03-05T06:02:42;24.53;;;14.00;;
16093;SDS011;8151;47.824;12.092;2023-03-05T06:05:11;31.10;;;17.20;;
16093;SDS011;8151;47.824;12.092;2023-03-05T06:07:41;30.93;;;16.07;;
16093;SDS011;8151;47.824;12.092;2023-03-05T06:10:10;30.80;;;14.93;;
16093;SDS011;8151;47.824;12.092;2023-03-05T06:12:39;30.23;;;15.20;;
16093;SDS011;8151;47.824;12.092;2023-03-05T06:15:08;31.63;;;17.90;;
16093;SDS011;8151;47.824;12.092;2023-03-05T06:17:37;30.50;;;15.70;;
16093;SDS011;8151;47.824;12.092;2023-03-05T06:20:07;30.87;;;14.67;;
16093;SDS011;8151;47.824;12.092;2023-03-05T06:22:36;27.90;;;15.53;;
16093;SDS011;8151;47.824;12.092;2023-03-05T06:25:06;29.87;;;15.07;;
16093;SDS011;8151;47.824;12.092;2023-03-05T06:27:36;27.90;;;15.70;;
16093;SDS011;8151;47.824;12.092;2023-03-05T06:30:05;28.83;;;15.77;;
16093;SDS011;8151;47.824;12.092;2023-03-05T06:32:35;33.10;;;15.43;;
16093;SDS011;8151;47.824;12.092;2023-03-05T06:35:03;27.87;;;15.63;;
16093;SDS011;8151;47.824;12.092;2023-03-05T06:37:34;30.87;;;15.67;;
16093;SDS011;8151;47.824;12.092;2023-03-05T06:40:02;29.50;;;15.93;;
16093;SDS011;8151;47.824;12.092;2023-03-05T06:42:33;28.97;;;15.07;;
16093;SDS011;8151;47.824;12.092;2023-03-05T06:45:02;26.57;;;14.53;;
16093;SDS011;8151;47.824;12.092;2023-03-05T06:47:30;27.23;;;14.57;;
16093;SDS011;8151;47.824;12.092;2023-03-05T06:49:59;30.87;;;15.90;;
16093;SDS011;8151;47.824;12.092;2023-03-05T06:52:27;29.40;;;16.30;;
16093;SDS011;8151;47.824;12.092;2023-03-05T06:54:57;30.20;;;14.90;;
16093;SDS011;8151;47.824;12.092;2023-03-05T06:57:26;31.50;;;15.77;;
16093;SDS011;8151;47.824;12.092;2023-03-05T06:59:54;29.47;;;15.10;;
16093;SDS011;8151;47.824;12.092;2023-03-05T07:02:22;29.13;;;15.37;;
16093;SDS011;8151;47.824;12.092;2023-03-05T07:04:51;32.10;;;15.67;;
16093;SDS011;8151;47.824;12.092;2023-03-05T07:07:19;33.63;;;16.73;;
16093;SDS011;8151;47.824;12.092;2023-03-05T07:09:48;32.70;;;16.43;;
16093;SDS011;8151;47.824;12.092;2023-03-05T07:12:20;33.40;;;16.80;;
16093;SDS011;8151;47.824;12.092;2023-03-05T07:14:48;31.20;;;16.03;;
16093;SDS011;8151;47.824;12.092;2023-03-05T07:17:17;33.23;;;16.73;;
16093;SDS011;8151;47.824;12.092;2023-03-05T07:19:45;37.57;;;16.83;;
16093;SDS011;8151;47.824;12.092;2023-03-05T07:22:13;38.13;;;16.93;;
16093;SDS011;8151;47.824;12.092;2023-03-05T07:24:42;31.33;;;16.97;;
16093;SDS011;8151;47.824;12.092;2023-03-05T07:27:10;33.67;;;17.37;;
16093;SDS011;8151;47.824;12.092;2023-03-05T07:29:40;34.13;;;16.83;;
16093;SDS011;8151;47.824;12.092;2023-03-05T07:32:08;34.53;;;16.13;;
16093;SDS011;8151;47.824;12.092;2023-03-05T07:34:37;36.70;;;18.33;;
16093;SDS011;8151;47.824;12.092;2023-03-05T07:37:05;35.83;;;17.57;;
16093;SDS011;8151;47.824;12.092;2023-03-05T07:39:33;38.07;;;18.27;;
16093;SDS011;8151;47.824;12.092;2023-03-05T07:42:02;30.73;;;16.40;;
16093;SDS011;8151;47.824;12.092;2023-03-05T07:44:30;37.20;;;17.10;;
16093;SDS011;8151;47.824;12.092;2023-03-05T07:47:00;30.23;;;16.27;;
16093;SDS011;8151;47.824;12.092;2023-03-05T07:49:28;32.63;;;16.47;;
16093;SDS011;8151;47.824;12.092;2023-03-05T07:51:57;34.23;;;16.87;;
16093;SDS011;8151;47.824;12.092;2023-03-05T07:54:25;34.23;;;17.40;;
16093;SDS011;8151;47.824;12.092;2023-03-05T07:56:53;31.97;;;16.00;;
16093;SDS011;8151;47.824;12.092;2023-03-05T07:59:22;30.13;;;15.20;;
16093;SDS011;8151;47.824;12.092;2023-03-05T08:01:50;32.77;;;17.27;;
16093;SDS011;8151;47.824;12.092;2023-03-05T08:04:20;34.33;;;16.97;;
16093;SDS011;8151;47.824;12.092;2023-03-05T08:06:48;37.87;;;20.20;;
16093;SDS011;8151;47.824;12.092;2023-03-05T08:09:17;38.07;;;20.50;;
16093;SDS011;8151;47.824;12.092;2023-03-05T08:11:46;39.97;;;18.57;;
16093;SDS011;8151;47.824;12.092;2023-03-05T08:14:15;33.70;;;17.53;;
16093;SDS011;8151;47.824;12.092;2023-03-05T08:16:43;40.57;;;17.13;;
16093;SDS011;8151;47.824;12.092;2023-03-05T08:19:14;35.33;;;16.93;;
16093;SDS011;8151;47.824;12.092;2023-03-05T08:21:44;31.63;;;16.93;;
16093;SDS011;8151;47.824;12.092;2023-03-05T08:24:13;30.23;;;16.20;;
16093;SDS011;8151;47.824;12.092;2023-03-05T08:26:41;35.03;;;17.40;;
16093;SDS011;8151;47.824;12.092;2023-03-05T08:29:10;36.33;;;17.60;;
16093;SDS011;8151;47.824;12.092;2023-03-05T08:31:39;35.63;;;16.93;;
16093;SDS011;8151;47.824;12.092;2023-03-05T08:34:07;34.83;;;16.10;;
16093;SDS011;8151;47.824;12.092;2023-03-05T08:36:35;39.03;;;16.37;;
16093;SDS011;8151;47.824;12.092;2023-03-05T08:39:05;34.33;;;16.47;;
16093;SDS011;8151;47.824;12.092;2023-03-05T08:41:34;32.90;;;17.00;;
16093;SDS011;8151;47.824;12.092;2023-03-05T08:44:03;30.23;;;16.10;;
16093;SDS011;8151;47.824;12.092;2023-03-05T08:46:31;29.60;;;15.73;;
16093;SDS011;8151;47.824;12.092;2023-03-05T08:49:00;37.63;;;17.07;;
16093;SDS011;8151;47.824;12.092;2023-03-05T08:51:29;29.40;;;16.20;;
16093;SDS011;8151;47.824;12.092;2023-03-05T08:53:57;32.30;;;15.27;;
16093;SDS011;8151;47.824;12.092;2023-03-05T08:56:28;30.17;;;15.73;;
16093;SDS011;8151;47.824;12.092;2023-03-05T08:58:57;32.27;;;15.00;;
16093;SDS011;8151;47.824;12.092;2023-03-05T09:01:25;30.67;;;15.33;;
16093;SDS011;8151;47.824;12.092;2023-03-05T09:03:54;25.53;;;13.77;;
16093;SDS011;8151;47.824;12.092;2023-03-05T09:06:22;26.00;;;12.70;;
16093;SDS011;8151;47.824;12.092;2023-03-05T09:08:51;25.07;;;12.93;;
16093;SDS011;8151;47.824;12.092;2023-03-05T09:11:19;25.60;;;12.60;;
16093;SDS011;8151;47.824;12.092;2023-03-05T09:13:49;21.93;;;11.53;;
16093;SDS011;8151;47.824;12.092;2023-03-05T09:16:18;23.80;;;12.40;;
16093;SDS011;8151;47.824;12.092;2023-03-05T09:18:46;27.90;;;12.93;;
16093;SDS011;8151;47.824;12.092;2023-03-05T09:21:15;24.17;;;13.20;;
16093;SDS011;8151;47.824;12.092;2023-03-05T09:23:44;26.43;;;12.97;;
16093;SDS011;8151;47.824;12.092;2023-03-05T09:26:14;24.37;;;13.73;;
16093;SDS011;8151;47.824;12.092;2023-03-05T09:28:45;28.13;;;14.80;;
16093;SDS011;8151;47.824;12.092;2023-03-05T09:31:15;25.60;;;12.80;;
16093;SDS011;8151;47.824;12.092;2023-03-05T09:33:43;21.93;;;12.50;;
16093;SDS011;8151;47.824;12.092;2023-03-05T09:36:15;23.60;;;12.63;;
16093;SDS011;8151;47.824;12.092;2023-03-05T09:38:46;25.17;;;13.20;;
16093;SDS011;8151;47.824;12.092;2023-03-05T09:41:15;22.50;;;11.60;;
16093;SDS011;8151;47.824;12.092;2023-03-05T09:43:53;20.57;;;12.00;;
16093;SDS011;8151;47.824;12.092;2023-03-05T09:46:29;26.07;;;12.43;;
16093;SDS011;8151;47.824;12.092;2023-03-05T09:49:09;22.83;;;12.40;;
16093;SDS011;8151;47.824;12.092;2023-03-05T09:51:44;23.97;;;12.33;;
16093;SDS011;8151;47.824;12.092;2023-03-05T09:54:17;25.13;;;12.53;;
16093;SDS011;8151;47.824;12.092;2023-03-05T09:56:49;22.60;;;11.67;;
16093;SDS011;8151;47.824;12.092;2023-03-05T09:59:25;25.07;;;12.33;;
16093;SDS011;8151;47.824;12.092;2023-03-05T10:02:00;23.77;;;12.73;;
16093;SDS011;8151;47.824;12.092;2023-03-05T10:04:37;29.27;;;14.07;;
16093;SDS011;8151;47.824;12.092;2023-03-05T10:07:11;26.37;;;14.57;;
16093;SDS011;8151;47.824;12.092;2023-03-05T10:09:44;28.50;;;14.03;;
16093;SDS011;8151;47.824;12.092;2023-03-05T10:12:17;25.87;;;12.63;;
16093;SDS011;8151;47.824;12.092;2023-03-05T10:14:51;30.53;;;13.90;;
16093;SDS011;8151;47.824;12.092;2023-03-05T10:20:44;24.87;;;12.93;;
16093;SDS011;8151;47.824;12.092;2023-03-05T10:23:24;26.40;;;13.67;;
16093;SDS011;8151;47.824;12.092;2023-03-05T10:25:58;29.77;;;14.13;;
16093;SDS011;8151;47.824;12.092;2023-03-05T10:28:34;19.73;;;11.03;;
16093;SDS011;8151;47.824;12.092;2023-03-05T10:31:21;20.47;;;12.10;;
16093;SDS011;8151;47.824;12.092;2023-03-05T10:37:01;19.17;;;10.70;;
16093;SDS011;8151;47.824;12.092;2023-03-05T10:39:50;18.90;;;10.53;;
16093;SDS011;8151;47.824;12.092;2023-03-05T10:42:26;21.37;;;11.30;;
16093;SDS011;8151;47.824;12.092;2023-03-05T10:45:00;23.60;;;11.50;;
16093;SDS011;8151;47.824;12.092;2023-03-05T10:47:40;24.60;;;13.87;;
16093;SDS011;8151;47.824;12.092;2023-03-05T10:50:16;21.70;;;11.07;;
16093;SDS011;8151;47.824;12.092;2023-03-05T10:52:46;24.57;;;11.23;;
16093;SDS011;8151;47.824;12.092;2023-03-05T10:55:20;20.27;;;9.83;;
16093;SDS011;8151;47.824;12.092;2023-03-05T10:57:49;21.03;;;10.57;;
16093;SDS011;8151;47.824;12.092;2023-03-05T11:00:18;22.63;;;10.67;;
16093;SDS011;8151;47.824;12.092;2023-03-05T11:02:52;22.87;;;11.83;;
16093;SDS011;8151;47.824;12.092;2023-03-05T11:05:34;16.67;;;10.00;;
16093;SDS011;8151;47.824;12.092;2023-03-05T11:08:18;18.63;;;10.13;;
16093;SDS011;8151;47.824;12.092;2023-03-05T11:11:01;18.30;;;9.50;;
16093;SDS011;8151;47.824;12.092;2023-03-05T11:13:49;18.10;;;9.43;;
16093;SDS011;8151;47.824;12.092;2023-03-05T11:16:22;14.40;;;9.00;;
16093;SDS011;8151;47.824;12.092;2023-03-05T11:19:15;17.20;;;9.27;;
16093;SDS011;8151;47.824;12.092;2023-03-05T11:22:05;18.67;;;8.67;;
16093;SDS011;8151;47.824;12.092;2023-03-05T11:24:40;17.37;;;9.93;;
16093;SDS011;8151;47.824;12.092;2023-03-05T11:27:22;17.17;;;9.03;;
16093;SDS011;8151;47.824;12.092;2023-03-05T11:29:52;16.43;;;8.90;;
16093;SDS011;8151;47.824;12.092;2023-03-05T11:32:22;12.97;;;8.20;;
16093;SDS011;8151;47.824;12.092;2023-03-05T11:34:52;14.47;;;8.03;;
16093;SDS011;8151;47.824;12.092;2023-03-05T11:37:24;12.70;;;7.73;;
16093;SDS011;8151;47.824;12.092;2023-03-05T11:40:04;14.53;;;7.33;;
16093;SDS011;8151;47.824;12.092;2023-03-05T11:42:43;12.27;;;7.47;;
16093;SDS011;8151;47.824;12.092;2023-03-05T11:45:16;11.70;;;6.77;;
16093;SDS011;8151;47.824;12.092;2023-03-05T11:47:46;13.53;;;7.67;;
16093;SDS011;8151;47.824;12.092;2023-03-05T11:50:18;11.57;;;6.73;;
16093;SDS011;8151;47.824;12.092;2023-03-05T11:52:51;10.83;;;6.73;;
16093;SDS011;8151;47.824;12.092;2023-03-05T11:55:24;10.83;;;6.60;;
16093;SDS011;8151;47.824;12.092;2023-03-05T11:57:59;14.17;;;7.23;;
16093;SDS011;8151;47.824;12.092;2023-03-05T12:00:40;16.97;;;7.77;;
16093;SDS011;8151;47.824;12.092;2023-03-05T12:03:12;12.43;;;7.23;;
16093;SDS011;8151;47.824;12.092;2023-03-05T12:05:43;11.07;;;7.10;;
16093;SDS011;8151;47.824;12.092;2023-03-05T12:08:17;8.70;;;6.10;;
16093;SDS011;8151;47.824;12.092;2023-03-05T12:10:51;13.13;;;6.87;;
16093;SDS011;8151;47.824;12.092;2023-03-05T12:13:22;16.23;;;7.43;;
16093;SDS011;8151;47.824;12.092;2023-03-05T12:16:01;10.83;;;6.77;;
16093;SDS011;8151;47.824;12.092;2023-03-05T12:18:37;15.73;;;7.60;;
16093;SDS011;8151;47.824;12.092;2023-03-05T12:21:14;14.23;;;7.47;;
16093;SDS011;8151;47.824;12.092;2023-03-05T12:23:57;14.53;;;7.90;;
16093;SDS011;8151;47.824;12.092;2023-03-05T12:29:26;14.93;;;7.40;;
16093;SDS011;8151;47.824;12.092;2023-03-05T12:31:56;15.87;;;8.33;;
16093;SDS011;8151;47.824;12.092;2023-03-05T12:34:41;11.80;;;7.30;;
16093;SDS011;8151;47.824;12.092;2023-03-05T12:40:21;12.70;;;7.37;;
16093;SDS011;8151;47.824;12.092;2023-03-05T12:42:51;12.90;;;6.97;;
16093;SDS011;8151;47.824;12.092;2023-03-05T12:45:22;12.67;;;6.93;;
16093;SDS011;8151;47.824;12.092;2023-03-05T12:51:27;13.03;;;7.30;;
16093;SDS011;8151;47.824;12.092;2023-03-05T12:56:58;14.33;;;8.57;;
16093;SDS011;8151;47.824;12.092;2023-03-05T12:59:37;25.23;;;12.30;;
16093;SDS011;8151;47.824;12.092;2023-03-05T13:04:59;14.30;;;7.10;;
16093;SDS011;8151;47.824;12.092;2023-03-05T13:07:32;11.67;;;7.37;;
16093;SDS011;8151;47.824;12.092;2023-03-05T13:10:00;13.73;;;7.90;;
16093;SDS011;8151;47.824;12.092;2023-03-05T13:12:30;12.73;;;7.47;;
16093;SDS011;8151;47.824;12.092;2023-03-05T13:15:00;13.03;;;7.33;;
16093;SDS011;8151;47.824;12.092;2023-03-05T13:17:33;12.83;;;7.63;;
16093;SDS011;8151;47.824;12.092;2023-03-05T13:20:26;12.13;;;7.07;;
16093;SDS011;8151;47.824;12.092;2023-03-05T13:23:03;14.40;;;7.10;;
16093;SDS011;8151;47.824;12.092;2023-03-05T13:25:37;17.07;;;7.37;;
16093;SDS011;8151;47.824;12.092;2023-03-05T13:28:08;13.57;;;7.53;;
16093;SDS011;8151;47.824;12.092;2023-03-05T13:30:42;13.67;;;7.43;;
16093;SDS011;8151;47.824;12.092;2023-03-05T13:33:14;10.47;;;7.27;;
16093;SDS011;8151;47.824;12.092;2023-03-05T13:35:45;12.67;;;7.30;;
16093;SDS011;8151;47.824;12.092;2023-03-05T13:38:21;12.87;;;7.30;;
16093;SDS011;8151;47.824;12.092;2023-03-05T13:41:01;15.37;;;8.00;;
16093;SDS011;8151;47.824;12.092;2023-03-05T13:43:48;14.73;;;7.57;;
16093;SDS011;8151;47.824;12.092;2023-03-05T13:46:29;12.40;;;7.27;;
16093;SDS011;8151;47.824;12.092;2023-03-05T13:51:48;16.10;;;7.70;;
16093;SDS011;8151;47.824;12.092;2023-03-05T13:54:17;14.50;;;7.67;;
16093;SDS011;8151;47.824;12.092;2023-03-05T13:56:53;15.60;;;7.47;;
16093;SDS011;8151;47.824;12.092;2023-03-05T13:59:25;14.60;;;7.50;;
16093;SDS011;8151;47.824;12.092;2023-03-05T14:01:55;11.73;;;7.43;;
16093;SDS011;8151;47.824;12.092;2023-03-05T14:04:26;12.23;;;7.50;;
16093;SDS011;8151;47.824;12.092;2023-03-05T14:06:57;21.93;;;12.73;;
16093;SDS011;8151;47.824;12.092;2023-03-05T14:09:27;11.23;;;7.33;;
16093;SDS011;8151;47.824;12.092;2023-03-05T14:11:58;14.30;;;7.83;;
16093;SDS011;8151;47.824;12.092;2023-03-05T14:14:32;15.97;;;7.53;;
16093;SDS011;8151;47.824;12.092;2023-03-05T14:17:22;11.37;;;6.33;;
16093;SDS011;8151;47.824;12.092;2023-03-05T14:20:06;11.90;;;7.53;;
16093;SDS011;8151;47.824;12.092;2023-03-05T14:22:59;13.07;;;7.20;;
16093;SDS011;8151;47.824;12.092;2023-03-05T14:25:33;10.50;;;6.53;;
16093;SDS011;8151;47.824;12.092;2023-03-05T14:28:05;12.90;;;7.23;;
16093;SDS011;8151;47.824;12.092;2023-03-05T14:30:45;12.80;;;7.20;;
16093;SDS011;8151;47.824;12.092;2023-03-05T14:33:16;17.57;;;8.00;;
16093;SDS011;8151;47.824;12.092;2023-03-05T14:35:50;12.30;;;6.47;;
16093;SDS011;8151;47.824;12.092;2023-03-05T14:38:21;13.57;;;7.57;;
16093;SDS011;8151;47.824;12.092;2023-03-05T14:40:52;12.13;;;7.60;;
16093;SDS011;8151;47.824;12.092;2023-03-05T14:43:20;14.93;;;8.50;;
16093;SDS011;8151;47.824;12.092;2023-03-05T14:45:50;15.87;;;9.10;;
16093;SDS011;8151;47.824;12.092;2023-03-05T14:48:19;14.23;;;8.00;;
16093;SDS011;8151;47.824;12.092;2023-03-05T14:50:48;15.63;;;8.13;;
16093;SDS011;8151;47.824;12.092;2023-03-05T14:53:23;17.10;;;8.73;;
16093;SDS011;8151;47.824;12.092;2023-03-05T14:55:54;14.30;;;8.30;;
16093;SDS011;8151;47.824;12.092;2023-03-05T14:58:23;13.90;;;8.33;;
16093;SDS011;8151;47.824;12.092;2023-03-05T15:00:54;12.63;;;7.93;;
16093;SDS011;8151;47.824;12.092;2023-03-05T15:03:23;14.90;;;8.83;;
16093;SDS011;8151;47.824;12.092;2023-03-05T15:05:54;14.33;;;8.53;;
16093;SDS011;8151;47.824;12.092;2023-03-05T15:08:25;13.80;;;7.93;;
16093;SDS011;8151;47.824;12.092;2023-03-05T15:10:55;15.77;;;8.70;;
16093;SDS011;8151;47.824;12.092;2023-03-05T15:13:24;13.30;;;7.73;;